Time;durP1;ratioP1;P1;durP2;ratioP2;P2;SDS_P1;SDS_P2;PMS_P1;PMS_P2;Temp;Humidity;BMP_temperature;BMP_pressure;BME280_temperature;BME280_humidity;BME280_pressure;Samples;Min_cycle;Max_cycle;Signal;HPM_P1;HPM_P2
2022/01/23 00:00:55;;;;;;;67.40;30.95;;;;;;;;;;4992012;28;20261;-52
2022/01/23 00:03:21;;;;;;;68.10;31.17;;;;;;;;;;4992998;28;20161;-52
2022/01/23 00:05:50;;;;;;;64.70;30.13;;;;;;;;;;4992974;28;20248;-52
2022/01/23 00:08:20;;;;;;;66.13;30.90;;;;;;;;;;4993039;28;20165;-51
2022/01/23 00:10:47;;;;;;;73.20;30.85;;;;;;;;;;4992408;28;20165;-52
2022/01/23 00:13:32;;;;;;;78.63;32.60;;;;;;;;;;4998270;28;20169;-52
2022/01/23 00:18:43;;;;;;;61.00;30.80;;;;;;;;;;4992743;28;20239;-52
2022/01/23 00:21:09;;;;;;;67.03;31.73;;;;;;;;;;4992371;28;20830;-51
2022/01/23 00:31:35;;;;;;;61.53;32.30;;;;;;;;;;4990566;28;20244;-52
2022/01/23 00:34:01;;;;;;;64.63;28.58;;;;;;;;;;4992278;28;20277;-52
2022/01/23 00:36:28;;;;;;;62.23;29.17;;;;;;;;;;4992373;28;20584;-52
2022/01/23 00:38:55;;;;;;;71.68;30.45;;;;;;;;;;4992089;28;20895;-51
2022/01/23 00:41:21;;;;;;;74.75;31.40;;;;;;;;;;4992204;28;20672;-52
2022/01/23 00:43:49;;;;;;;64.15;29.65;;;;;;;;;;4992466;28;20615;-52
2022/01/23 00:49:24;;;;;;;61.03;28.65;;;;;;;;;;4992331;28;20215;-52
2022/01/23 00:51:38;;;;;;;61.63;28.35;;;;;;;;;;4991827;28;20218;-53
2022/01/23 00:54:06;;;;;;;64.40;29.20;;;;;;;;;;4991989;28;20225;-52
2022/01/23 00:56:32;;;;;;;67.05;28.77;;;;;;;;;;4991948;28;20173;-52
2022/01/23 00:58:59;;;;;;;55.00;27.50;;;;;;;;;;4991814;28;20166;-52
2022/01/23 01:01:25;;;;;;;55.42;27.20;;;;;;;;;;4990093;28;20201;-52
2022/01/23 01:03:50;;;;;;;61.63;30.43;;;;;;;;;;4991365;28;20687;-52
2022/01/23 01:06:18;;;;;;;55.53;27.70;;;;;;;;;;4991916;28;20420;-52
2022/01/23 01:08:46;;;;;;;53.25;26.95;;;;;;;;;;4991887;28;20547;-51
2022/01/23 01:11:49;;;;;;;64.55;29.15;;;;;;;;;;4991412;28;20200;-52
2022/01/23 01:30:23;;;;;;;66.80;28.73;;;;;;;;;;4991844;28;20676;-51
2022/01/23 01:35:23;;;;;;;59.73;27.37;;;;;;;;;;4991717;28;20284;-52
2022/01/23 01:37:49;;;;;;;60.63;26.63;;;;;;;;;;4991952;28;20535;-52
2022/01/23 01:40:15;;;;;;;60.13;28.90;;;;;;;;;;4991404;28;20248;-52
2022/01/23 01:42:41;;;;;;;55.30;25.70;;;;;;;;;;4991519;28;20790;-52
2022/01/23 01:45:07;;;;;;;53.20;25.77;;;;;;;;;;4991660;28;20412;-52
2022/01/23 01:47:33;;;;;;;56.60;25.83;;;;;;;;;;4991471;28;20176;-51
2022/01/23 01:50:00;;;;;;;53.30;25.37;;;;;;;;;;4991544;28;20181;-52
2022/01/23 01:52:26;;;;;;;53.75;26.50;;;;;;;;;;4991395;28;20431;-52
2022/01/23 01:55:00;;;;;;;52.40;25.73;;;;;;;;;;4991470;28;20205;-52
2022/01/23 01:57:31;;;;;;;64.88;27.00;;;;;;;;;;4991488;28;20400;-52
2022/01/23 02:00:13;;;;;;;56.85;25.80;;;;;;;;;;4991384;28;20235;-53
2022/01/23 02:10:38;;;;;;;56.72;25.33;;;;;;;;;;4975337;28;20833;-51
2022/01/23 02:24:01;;;;;;;52.65;25.33;;;;;;;;;;4975732;28;20232;-51
2022/01/23 02:56:47;;;;;;;49.95;25.60;;;;;;;;;;4994380;28;20177;-50
2022/01/23 02:59:37;;;;;;;51.88;24.60;;;;;;;;;;4994156;28;20248;-50
2022/01/23 03:04:36;;;;;;;52.33;25.55;;;;;;;;;;4994526;28;20227;-50
2022/01/23 03:07:31;;;;;;;60.65;25.52;;;;;;;;;;4994200;28;20154;-50
2022/01/23 03:10:05;;;;;;;55.92;25.27;;;;;;;;;;4994091;28;20169;-50
2022/01/23 03:15:24;;;;;;;51.88;24.05;;;;;;;;;;4992670;28;20231;-50
2022/01/23 03:29:18;;;;;;;52.28;23.50;;;;;;;;;;4977608;28;20215;-51
2022/01/23 03:34:17;;;;;;;56.47;26.50;;;;;;;;;;4993796;28;20248;-51
2022/01/23 03:36:43;;;;;;;55.15;25.63;;;;;;;;;;4993494;28;20760;-51
2022/01/23 03:39:10;;;;;;;56.05;25.45;;;;;;;;;;4992670;28;20169;-51
2022/01/23 03:41:37;;;;;;;56.97;26.63;;;;;;;;;;4993379;28;20556;-51
2022/01/23 03:44:05;;;;;;;57.10;26.77;;;;;;;;;;4992845;28;20245;-52
2022/01/23 03:46:50;;;;;;;58.85;27.92;;;;;;;;;;4992595;28;20180;-50
2022/01/23 03:49:31;;;;;;;55.40;24.25;;;;;;;;;;4993166;28;20186;-51
2022/01/23 03:51:57;;;;;;;56.72;26.35;;;;;;;;;;4993172;28;20188;-50
2022/01/23 03:54:24;;;;;;;60.38;27.77;;;;;;;;;;4993113;28;20219;-50
2022/01/23 03:56:50;;;;;;;62.40;27.50;;;;;;;;;;4993150;28;20248;-51
2022/01/23 03:59:16;;;;;;;58.50;25.50;;;;;;;;;;4993159;28;20727;-50
2022/01/23 04:01:42;;;;;;;57.77;26.63;;;;;;;;;;4991471;28;20444;-51
2022/01/23 04:04:23;;;;;;;56.83;27.57;;;;;;;;;;4992993;28;20424;-51
2022/01/23 04:06:49;;;;;;;54.90;26.30;;;;;;;;;;4993062;28;20501;-50
2022/01/23 04:09:15;;;;;;;56.38;26.98;;;;;;;;;;4991314;28;20177;-50
2022/01/23 04:11:41;;;;;;;55.90;26.73;;;;;;;;;;4992801;28;20224;-50
2022/01/23 04:14:10;;;;;;;56.63;27.30;;;;;;;;;;4992771;28;20951;-50
2022/01/23 04:45:48;;;;;;;38.83;18.85;;;;;;;;;;4992412;28;20239;-51
2022/01/23 05:09:26;;;;;;;34.70;17.95;;;;;;;;;;4991792;28;20466;-50
2022/01/23 05:11:56;;;;;;;38.50;17.55;;;;;;;;;;4991545;28;20213;-50
2022/01/23 05:14:29;;;;;;;40.63;18.75;;;;;;;;;;4991766;28;20197;-50
2022/01/23 05:16:55;;;;;;;41.40;19.73;;;;;;;;;;4991888;28;20168;-51
2022/01/23 05:19:21;;;;;;;52.42;21.17;;;;;;;;;;4991586;28;20169;-50
2022/01/23 05:24:15;;;;;;;39.23;19.07;;;;;;;;;;4991653;28;20396;-51
2022/01/23 05:26:44;;;;;;;35.88;18.63;;;;;;;;;;4991755;28;20899;-51
2022/01/23 05:29:11;;;;;;;36.40;18.48;;;;;;;;;;4991535;28;20632;-51
2022/01/23 05:31:37;;;;;;;35.70;18.27;;;;;;;;;;4990635;28;20212;-52
2022/01/23 05:34:03;;;;;;;47.25;20.92;;;;;;;;;;4991561;28;20820;-50
2022/01/23 05:36:29;;;;;;;39.38;19.25;;;;;;;;;;4991611;28;20165;-50
2022/01/23 05:38:55;;;;;;;39.00;19.13;;;;;;;;;;4993517;28;20252;-51
2022/01/23 05:41:21;;;;;;;46.83;21.27;;;;;;;;;;4994294;28;20436;-50
2022/01/23 05:43:47;;;;;;;40.97;18.73;;;;;;;;;;4995628;28;20848;-51
2022/01/23 05:46:13;;;;;;;42.00;18.37;;;;;;;;;;4995584;28;20427;-51
2022/01/23 05:48:39;;;;;;;43.53;18.40;;;;;;;;;;4995513;28;20412;-51
2022/01/23 05:51:10;;;;;;;45.10;17.70;;;;;;;;;;4995277;28;20542;-51
2022/01/23 05:53:36;;;;;;;48.08;20.45;;;;;;;;;;4995308;28;20947;-51
2022/01/23 05:56:02;;;;;;;35.13;17.57;;;;;;;;;;4994186;28;20188;-51
2022/01/23 05:58:28;;;;;;;40.72;19.13;;;;;;;;;;4995415;28;20404;-51
2022/01/23 06:00:54;;;;;;;37.63;17.60;;;;;;;;;;4994220;28;20227;-50
2022/01/23 06:03:21;;;;;;;35.73;18.07;;;;;;;;;;4995286;28;20411;-50
2022/01/23 06:05:47;;;;;;;52.55;23.95;;;;;;;;;;4995364;28;20478;-51
2022/01/23 06:08:13;;;;;;;47.53;23.10;;;;;;;;;;4995289;28;20791;-51
2022/01/23 06:10:56;;;;;;;49.63;22.13;;;;;;;;;;4995119;28;20404;-51
2022/01/23 06:13:22;;;;;;;58.97;25.55;;;;;;;;;;5002475;28;20404;-52
2022/01/23 06:15:48;;;;;;;60.10;25.40;;;;;;;;;;5003436;28;20200;-52
2022/01/23 06:18:14;;;;;;;61.80;25.37;;;;;;;;;;5003899;28;20169;-52
2022/01/23 06:20:40;;;;;;;57.50;27.40;;;;;;;;;;5002552;28;20904;-52
2022/01/23 06:23:06;;;;;;;63.80;26.70;;;;;;;;;;5003561;28;20399;-52
2022/01/23 06:25:34;;;;;;;55.65;26.00;;;;;;;;;;5004140;28;20408;-52
2022/01/23 06:28:01;;;;;;;54.08;24.92;;;;;;;;;;5003115;28;20172;-51
2022/01/23 06:30:27;;;;;;;62.25;26.25;;;;;;;;;;5001135;28;20178;-52
2022/01/23 06:32:53;;;;;;;57.17;25.93;;;;;;;;;;5003068;28;20293;-52
2022/01/23 06:35:19;;;;;;;51.80;26.37;;;;;;;;;;5001841;28;20970;-51
2022/01/23 06:37:45;;;;;;;63.20;27.20;;;;;;;;;;5003886;28;20412;-51
2022/01/23 06:40:11;;;;;;;52.27;25.13;;;;;;;;;;4994552;28;20462;-51
2022/01/23 06:42:37;;;;;;;60.75;27.05;;;;;;;;;;4994480;28;20420;-51
2022/01/23 06:45:03;;;;;;;60.43;26.33;;;;;;;;;;4994538;28;20228;-50
2022/01/23 06:47:30;;;;;;;55.63;25.73;;;;;;;;;;4994425;28;20558;-50
2022/01/23 06:49:56;;;;;;;62.72;26.90;;;;;;;;;;4993883;28;20173;-52
2022/01/23 06:52:23;;;;;;;65.57;29.98;;;;;;;;;;4994250;28;20193;-51
2022/01/23 06:54:48;;;;;;;72.20;30.17;;;;;;;;;;4994253;28;20208;-51
2022/01/23 06:57:14;;;;;;;54.83;28.20;;;;;;;;;;4994279;28;20173;-51
2022/01/23 06:59:41;;;;;;;70.13;29.70;;;;;;;;;;4994066;28;20443;-51
2022/01/23 07:02:07;;;;;;;71.68;29.60;;;;;;;;;;4993141;28;20542;-51
2022/01/23 07:04:33;;;;;;;59.53;30.40;;;;;;;;;;4994117;28;20619;-51
2022/01/23 07:06:59;;;;;;;58.17;26.33;;;;;;;;;;4994069;28;20404;-51
2022/01/23 07:09:25;;;;;;;57.90;27.98;;;;;;;;;;4993819;28;20807;-52
2022/01/23 07:11:51;;;;;;;59.90;28.35;;;;;;;;;;4993805;28;20216;-51
2022/01/23 07:14:17;;;;;;;60.97;28.05;;;;;;;;;;4993962;28;20196;-51
2022/01/23 07:16:43;;;;;;;67.18;27.48;;;;;;;;;;4992906;28;20179;-51
2022/01/23 07:19:09;;;;;;;58.60;27.30;;;;;;;;;;4993666;28;20203;-52
2022/01/23 07:21:34;;;;;;;57.40;28.93;;;;;;;;;;4993758;28;20427;-50
2022/01/23 07:24:00;;;;;;;59.07;25.93;;;;;;;;;;4993836;28;20408;-50
2022/01/23 07:26:28;;;;;;;63.00;29.33;;;;;;;;;;4993803;28;20423;-50
2022/01/23 07:28:56;;;;;;;62.70;27.98;;;;;;;;;;4993604;28;20840;-51
2022/01/23 07:34:03;;;;;;;60.17;26.05;;;;;;;;;;4993549;28;20300;-51
2022/01/23 07:36:29;;;;;;;59.00;26.60;;;;;;;;;;4993595;28;20244;-51
2022/01/23 07:38:55;;;;;;;55.43;25.30;;;;;;;;;;4993453;28;20645;-51
2022/01/23 07:41:21;;;;;;;61.50;26.70;;;;;;;;;;4993518;28;20420;-52
2022/01/23 07:43:47;;;;;;;58.08;26.20;;;;;;;;;;4993461;28;20404;-54
2022/01/23 07:46:13;;;;;;;71.13;26.83;;;;;;;;;;4993827;28;20181;-51
2022/01/23 07:48:39;;;;;;;60.73;27.40;;;;;;;;;;4993613;28;20316;-51
2022/01/23 07:51:06;;;;;;;59.22;26.65;;;;;;;;;;4993193;28;20928;-50
2022/01/23 07:53:32;;;;;;;66.05;28.02;;;;;;;;;;4993235;28;20181;-51
2022/01/23 07:55:58;;;;;;;54.73;24.37;;;;;;;;;;4991386;28;20185;-51
2022/01/23 07:58:24;;;;;;;74.70;32.23;;;;;;;;;;4993098;28;20403;-52
2022/01/23 08:00:50;;;;;;;63.63;27.93;;;;;;;;;;4992108;28;20411;-51
2022/01/23 08:03:16;;;;;;;63.03;28.53;;;;;;;;;;4993223;28;20412;-50
2022/01/23 08:05:45;;;;;;;65.73;28.67;;;;;;;;;;4992914;28;20409;-50
2022/01/23 08:08:11;;;;;;;68.68;29.25;;;;;;;;;;4992817;28;20405;-51
2022/01/23 08:10:38;;;;;;;72.63;28.30;;;;;;;;;;4992453;28;20161;-50
2022/01/23 08:13:05;;;;;;;70.78;30.67;;;;;;;;;;4992715;28;20531;-50
2022/01/23 08:15:31;;;;;;;62.10;25.70;;;;;;;;;;4992672;28;20220;-51
2022/01/23 08:18:04;;;;;;;56.80;25.42;;;;;;;;;;4992872;28;20582;-51
2022/01/23 08:20:31;;;;;;;59.92;27.40;;;;;;;;;;4992505;28;20197;-51
2022/01/23 08:22:59;;;;;;;66.33;28.10;;;;;;;;;;4992520;28;20195;-52
2022/01/23 08:25:25;;;;;;;61.50;27.65;;;;;;;;;;4992616;28;20480;-51
2022/01/23 08:27:51;;;;;;;68.47;29.57;;;;;;;;;;4991801;28;20224;-51
2022/01/23 08:30:17;;;;;;;55.20;28.13;;;;;;;;;;4992366;28;20428;-52
2022/01/23 08:32:43;;;;;;;62.35;30.70;;;;;;;;;;4992372;28;20456;-51
2022/01/23 08:35:09;;;;;;;68.33;28.83;;;;;;;;;;4992327;28;20304;-51
2022/01/23 08:37:35;;;;;;;68.55;30.40;;;;;;;;;;4992359;28;20885;-51
2022/01/23 08:40:01;;;;;;;75.20;31.27;;;;;;;;;;4992148;28;20169;-51
2022/01/23 08:42:27;;;;;;;75.65;33.38;;;;;;;;;;4992162;28;20427;-51
2022/01/23 08:44:54;;;;;;;79.17;32.27;;;;;;;;;;4992309;28;20169;-51
2022/01/23 08:47:22;;;;;;;62.73;26.90;;;;;;;;;;4992350;28;20420;-49
2022/01/23 08:49:49;;;;;;;72.43;29.52;;;;;;;;;;4992015;28;20494;-51
2022/01/23 08:52:17;;;;;;;70.43;29.90;;;;;;;;;;4992085;28;20186;-51
2022/01/23 08:54:44;;;;;;;69.97;31.73;;;;;;;;;;4992066;28;20457;-51
2022/01/23 08:57:11;;;;;;;66.68;31.98;;;;;;;;;;4990276;28;20452;-51
2022/01/23 08:59:37;;;;;;;72.97;30.90;;;;;;;;;;4991134;28;20192;-50
2022/01/23 09:02:03;;;;;;;76.10;30.27;;;;;;;;;;4991982;28;20420;-51
2022/01/23 09:04:29;;;;;;;65.05;29.85;;;;;;;;;;4991978;28;20503;-51
2022/01/23 09:06:55;;;;;;;62.93;27.73;;;;;;;;;;4992091;28;20256;-52
2022/01/23 09:09:24;;;;;;;69.93;30.30;;;;;;;;;;4991846;28;20404;-51
2022/01/23 09:14:20;;;;;;;70.70;29.35;;;;;;;;;;4992286;28;20198;-51
2022/01/23 09:16:46;;;;;;;71.50;30.43;;;;;;;;;;4992117;28;20535;-50
2022/01/23 09:19:12;;;;;;;75.68;29.52;;;;;;;;;;4991739;28;20835;-50
2022/01/23 09:21:39;;;;;;;78.07;29.40;;;;;;;;;;4991820;28;20180;-51
2022/01/23 09:24:06;;;;;;;81.97;28.73;;;;;;;;;;4991780;28;20411;-51
2022/01/23 09:26:33;;;;;;;73.30;30.85;;;;;;;;;;4991760;28;20526;-50
2022/01/23 09:29:01;;;;;;;70.60;29.45;;;;;;;;;;4990701;28;20230;-50
2022/01/23 09:31:48;;;;;;;76.70;29.40;;;;;;;;;;4991531;28;20200;-52
2022/01/23 09:34:14;;;;;;;80.60;28.45;;;;;;;;;;4991440;28;20590;-50
2022/01/23 09:36:41;;;;;;;70.28;29.02;;;;;;;;;;4991554;28;20189;-51
2022/01/23 09:39:10;;;;;;;76.68;31.23;;;;;;;;;;4991197;28;20167;-52
2022/01/23 09:41:39;;;;;;;83.60;32.25;;;;;;;;;;4991664;28;20201;-51
2022/01/23 09:44:06;;;;;;;78.38;30.60;;;;;;;;;;4991687;28;20189;-51
2022/01/23 09:46:32;;;;;;;64.57;28.90;;;;;;;;;;4991304;28;20348;-51
2022/01/23 09:48:59;;;;;;;70.80;28.33;;;;;;;;;;4991264;28;20181;-51
2022/01/23 09:51:27;;;;;;;73.05;29.92;;;;;;;;;;4991206;28;20204;-51
2022/01/23 09:53:54;;;;;;;76.97;30.60;;;;;;;;;;4991318;28;20585;-52
2022/01/23 09:56:30;;;;;;;64.93;26.80;;;;;;;;;;4990502;28;20429;-51
2022/01/23 09:58:58;;;;;;;71.70;30.97;;;;;;;;;;4991275;28;20423;-51
2022/01/23 10:01:24;;;;;;;83.07;30.17;;;;;;;;;;4991200;28;20420;-51
2022/01/23 10:03:51;;;;;;;71.50;30.60;;;;;;;;;;4991178;28;20880;-51
2022/01/23 10:06:17;;;;;;;76.87;28.67;;;;;;;;;;4991379;28;20172;-51
2022/01/23 10:08:43;;;;;;;74.15;32.08;;;;;;;;;;4991305;28;20994;-51
2022/01/23 10:11:12;;;;;;;79.80;30.03;;;;;;;;;;4990831;28;20199;-51
2022/01/23 10:13:39;;;;;;;67.90;28.70;;;;;;;;;;4990738;28;20405;-51
2022/01/23 10:16:05;;;;;;;57.23;24.67;;;;;;;;;;4990130;28;20466;-51
2022/01/23 10:18:32;;;;;;;64.83;27.80;;;;;;;;;;4990277;28;20480;-51
2022/01/23 10:20:58;;;;;;;65.70;27.23;;;;;;;;;;4990050;28;20544;-51
2022/01/23 10:23:24;;;;;;;59.17;27.70;;;;;;;;;;4990211;28;20404;-51
2022/01/23 10:25:52;;;;;;;57.60;26.80;;;;;;;;;;4993580;28;20810;-50
2022/01/23 10:28:21;;;;;;;64.27;27.03;;;;;;;;;;4990078;28;20436;-51
2022/01/23 10:30:51;;;;;;;60.57;27.93;;;;;;;;;;4993095;28;20406;-51
2022/01/23 10:33:18;;;;;;;61.87;26.43;;;;;;;;;;4993591;28;20399;-50
2022/01/23 10:35:56;;;;;;;67.20;28.13;;;;;;;;;;4993558;28;20457;-50
2022/01/23 10:38:23;;;;;;;69.10;27.43;;;;;;;;;;4993617;28;20483;-50
2022/01/23 10:41:05;;;;;;;59.67;25.50;;;;;;;;;;4993174;28;20397;-50
2022/01/23 10:49:01;;;;;;;60.40;24.00;;;;;;;;;;4993018;28;20405;-51
2022/01/23 10:51:36;;;;;;;61.70;27.20;;;;;;;;;;4992945;28;20429;-51
2022/01/23 10:54:05;;;;;;;54.30;25.33;;;;;;;;;;4993103;28;20460;-50
2022/01/23 10:56:33;;;;;;;59.17;25.47;;;;;;;;;;4992111;28;20908;-50
2022/01/23 10:59:10;;;;;;;53.47;23.00;;;;;;;;;;4992937;28;20492;-51
2022/01/23 11:01:36;;;;;;;56.13;23.23;;;;;;;;;;4993077;28;20428;-51
2022/01/23 11:04:06;;;;;;;51.50;22.63;;;;;;;;;;4992893;28;20418;-50
2022/01/23 11:06:32;;;;;;;52.47;24.83;;;;;;;;;;4992945;28;20412;-51
2022/01/23 11:09:12;;;;;;;48.17;22.43;;;;;;;;;;4992666;28;20420;-51
2022/01/23 11:12:04;;;;;;;41.43;21.63;;;;;;;;;;4957177;28;1041308;-52
2022/01/23 11:17:22;;;;;;;45.03;22.23;;;;;;;;;;4993976;28;21048;-51
2022/01/23 11:19:49;;;;;;;50.93;21.67;;;;;;;;;;4993704;28;20402;-51
2022/01/23 11:22:19;;;;;;;41.27;20.60;;;;;;;;;;4993717;28;21110;-51
2022/01/23 11:24:47;;;;;;;48.20;22.97;;;;;;;;;;4993730;28;20402;-51
2022/01/23 11:27:14;;;;;;;50.83;21.60;;;;;;;;;;4992940;28;20922;-51
2022/01/23 11:30:12;;;;;;;47.17;19.33;;;;;;;;;;4993391;28;20402;-52
2022/01/23 11:32:40;;;;;;;46.23;21.60;;;;;;;;;;4950495;28;20442;-52
2022/01/23 11:35:19;;;;;;;48.00;22.00;;;;;;;;;;4993188;28;21012;-51
2022/01/23 11:37:51;;;;;;;38.97;19.40;;;;;;;;;;4993484;28;20398;-51
2022/01/23 11:53:54;;;;;;;34.37;19.27;;;;;;;;;;4993030;28;20464;-51
2022/01/23 11:56:43;;;;;;;33.83;16.33;;;;;;;;;;4993014;28;20810;-51
2022/01/23 11:59:24;;;;;;;34.20;17.43;;;;;;;;;;4973498;28;20791;-51
2022/01/23 12:02:10;;;;;;;34.30;16.97;;;;;;;;;;4981679;28;20451;-50
2022/01/23 12:04:36;;;;;;;38.73;17.23;;;;;;;;;;4986868;28;20474;-52
2022/01/23 12:07:22;;;;;;;33.10;17.57;;;;;;;;;;4989362;28;20965;-51
2022/01/23 12:10:13;;;;;;;42.43;16.40;;;;;;;;;;4987356;28;20463;-51
2022/01/23 12:12:48;;;;;;;27.30;13.63;;;;;;;;;;4990016;28;21031;-52
2022/01/23 12:18:28;;;;;;;25.80;13.03;;;;;;;;;;5002992;28;20420;-52
2022/01/23 12:20:56;;;;;;;23.67;11.77;;;;;;;;;;5002544;28;20929;-52
2022/01/23 12:23:22;;;;;;;27.00;13.00;;;;;;;;;;5002268;28;20429;-52
2022/01/23 12:25:49;;;;;;;26.90;15.27;;;;;;;;;;5001232;28;20402;-53
2022/01/23 12:28:25;;;;;;;33.40;15.90;;;;;;;;;;5001006;28;20408;-52
2022/01/23 12:31:17;;;;;;;30.10;15.00;;;;;;;;;;5000002;28;20841;-52
2022/01/23 12:33:43;;;;;;;31.13;15.57;;;;;;;;;;4995958;28;20416;-53
2022/01/23 12:36:15;;;;;;;30.53;16.03;;;;;;;;;;4999164;28;20434;-52
2022/01/23 12:38:46;;;;;;;30.80;14.60;;;;;;;;;;4998972;28;20427;-52
2022/01/23 12:41:27;;;;;;;30.73;14.80;;;;;;;;;;4998818;28;20450;-52
2022/01/23 12:44:05;;;;;;;30.77;14.67;;;;;;;;;;4998474;28;20418;-52
2022/01/23 12:46:34;;;;;;;25.07;14.20;;;;;;;;;;4999846;28;20457;-52
2022/01/23 12:49:17;;;;;;;23.67;13.20;;;;;;;;;;4999450;28;20860;-52
2022/01/23 12:51:43;;;;;;;28.90;14.30;;;;;;;;;;4998229;28;20455;-52
2022/01/23 12:54:14;;;;;;;24.50;13.60;;;;;;;;;;4999140;28;20458;-52
2022/01/23 12:56:47;;;;;;;25.80;13.27;;;;;;;;;;4999139;28;20425;-52
2022/01/23 12:59:22;;;;;;;25.70;14.57;;;;;;;;;;4997260;28;20464;-52
2022/01/23 13:01:50;;;;;;;23.27;13.63;;;;;;;;;;4998416;28;20812;-52
2022/01/23 13:04:17;;;;;;;32.30;15.93;;;;;;;;;;4999449;28;20422;-52
2022/01/23 13:06:54;;;;;;;22.87;11.97;;;;;;;;;;4999286;28;20418;-52
2022/01/23 13:09:32;;;;;;;20.67;12.00;;;;;;;;;;4996598;28;20496;-53
2022/01/23 13:14:37;;;;;;;24.87;14.17;;;;;;;;;;4998334;28;20462;-52
2022/01/23 13:17:29;;;;;;;21.53;12.20;;;;;;;;;;4997158;28;20462;-52
2022/01/23 13:30:47;;;;;;;22.17;11.37;;;;;;;;;;4995844;28;20927;-52
2022/01/23 13:33:19;;;;;;;17.10;9.70;;;;;;;;;;5000098;28;20402;-52
2022/01/23 13:35:50;;;;;;;18.70;10.37;;;;;;;;;;4999697;28;20483;-52
2022/01/23 13:38:17;;;;;;;17.60;8.73;;;;;;;;;;5000778;28;20415;-52
2022/01/23 13:40:44;;;;;;;16.50;8.97;;;;;;;;;;5001403;28;20408;-52
2022/01/23 13:59:21;;;;;;;21.30;11.20;;;;;;;;;;5001435;28;20813;-52
2022/01/23 14:04:28;;;;;;;20.50;10.73;;;;;;;;;;5004784;28;20465;-52
2022/01/23 14:06:54;;;;;;;17.77;10.47;;;;;;;;;;5004579;28;20741;-52
2022/01/23 14:09:21;;;;;;;15.63;9.50;;;;;;;;;;5004262;28;20415;-52
2022/01/23 14:11:47;;;;;;;12.40;8.00;;;;;;;;;;5001248;28;20463;-52
2022/01/23 14:14:13;;;;;;;17.37;9.57;;;;;;;;;;5003113;28;20486;-52
2022/01/23 14:16:39;;;;;;;13.80;9.03;;;;;;;;;;5002595;28;20403;-52
2022/01/23 14:19:21;;;;;;;21.13;10.77;;;;;;;;;;5002231;28;20430;-52
2022/01/23 14:21:51;;;;;;;15.80;8.77;;;;;;;;;;5002608;28;20470;-52
2022/01/23 14:24:25;;;;;;;17.70;8.93;;;;;;;;;;5002508;28;20408;-52
2022/01/23 14:27:21;;;;;;;14.43;9.53;;;;;;;;;;5002380;28;20965;-52
2022/01/23 14:29:52;;;;;;;15.17;9.90;;;;;;;;;;5000338;28;20493;-52
2022/01/23 14:32:25;;;;;;;17.23;9.47;;;;;;;;;;5001456;28;20429;-52
2022/01/23 14:35:03;;;;;;;20.63;9.73;;;;;;;;;;5001028;28;20470;-52
2022/01/23 14:37:29;;;;;;;15.27;9.10;;;;;;;;;;5001811;28;20406;-52
2022/01/23 14:40:09;;;;;;;21.13;10.67;;;;;;;;;;4998128;28;20442;-53
2022/01/23 14:42:35;;;;;;;20.20;9.50;;;;;;;;;;5001145;28;20763;-53
2022/01/23 14:45:04;;;;;;;13.77;8.03;;;;;;;;;;4999985;28;20876;-53
2022/01/23 14:47:37;;;;;;;14.70;8.90;;;;;;;;;;4999276;28;20442;-53
2022/01/23 14:50:06;;;;;;;14.80;8.97;;;;;;;;;;5000960;28;20441;-52
2022/01/23 14:52:32;;;;;;;14.50;9.00;;;;;;;;;;5000283;28;20459;-52
2022/01/23 14:54:58;;;;;;;14.80;9.30;;;;;;;;;;4999989;28;21065;-52
2022/01/23 14:57:24;;;;;;;16.77;8.80;;;;;;;;;;5000467;28;20406;-52
2022/01/23 14:59:51;;;;;;;14.37;8.40;;;;;;;;;;5000446;28;20408;-52
2022/01/23 15:02:17;;;;;;;16.53;9.70;;;;;;;;;;5000832;28;20420;-52
2022/01/23 15:04:44;;;;;;;16.20;10.00;;;;;;;;;;5000925;28;20441;-52
2022/01/23 15:07:15;;;;;;;19.77;10.30;;;;;;;;;;4999995;28;20905;-52
2022/01/23 15:09:42;;;;;;;18.23;10.70;;;;;;;;;;4998288;28;20437;-52
2022/01/23 15:12:11;;;;;;;14.60;9.37;;;;;;;;;;4999837;28;20507;-52
2022/01/23 15:14:38;;;;;;;16.17;9.43;;;;;;;;;;5000191;28;20458;-52
2022/01/23 15:17:04;;;;;;;18.20;8.93;;;;;;;;;;4999235;28;20419;-52
2022/01/23 15:19:32;;;;;;;17.63;8.70;;;;;;;;;;4999244;28;20456;-52
2022/01/23 15:21:58;;;;;;;13.50;7.40;;;;;;;;;;4999495;28;20493;-52
2022/01/23 15:24:24;;;;;;;12.10;8.10;;;;;;;;;;4998753;28;20409;-52
2022/01/23 15:26:50;;;;;;;14.27;8.40;;;;;;;;;;4999473;28;20415;-52
2022/01/23 15:29:16;;;;;;;18.17;8.97;;;;;;;;;;4998169;28;20486;-52
2022/01/23 15:31:42;;;;;;;12.13;8.73;;;;;;;;;;4999315;28;20421;-52
2022/01/23 15:34:09;;;;;;;12.80;9.50;;;;;;;;;;4998892;28;20526;-52
2022/01/23 15:36:36;;;;;;;17.17;10.07;;;;;;;;;;4999184;28;20499;-52
2022/01/23 15:39:05;;;;;;;16.87;9.60;;;;;;;;;;4997732;28;20406;-52
2022/01/23 15:41:31;;;;;;;14.77;8.50;;;;;;;;;;4998624;28;20945;-52
2022/01/23 15:43:57;;;;;;;14.27;9.27;;;;;;;;;;4998798;28;20406;-53
2022/01/23 15:46:23;;;;;;;15.20;8.67;;;;;;;;;;4998170;28;20422;-52
2022/01/23 15:48:51;;;;;;;15.77;8.27;;;;;;;;;;4997251;28;20767;-52
2022/01/23 15:51:17;;;;;;;15.43;9.07;;;;;;;;;;4997722;28;20470;-52
2022/01/23 15:53:43;;;;;;;15.03;9.10;;;;;;;;;;4998565;28;20945;-52
2022/01/23 15:56:09;;;;;;;15.60;9.80;;;;;;;;;;4997893;28;20398;-52
2022/01/23 15:58:34;;;;;;;17.17;8.90;;;;;;;;;;4998742;28;20765;-52
2022/01/23 16:01:04;;;;;;;14.33;9.53;;;;;;;;;;4996135;28;20449;-52
2022/01/23 16:03:30;;;;;;;11.77;8.17;;;;;;;;;;4998356;28;20421;-52
2022/01/23 16:05:57;;;;;;;16.60;9.27;;;;;;;;;;4997469;28;20889;-52
2022/01/23 16:08:23;;;;;;;14.80;8.90;;;;;;;;;;4997264;28;20463;-52
2022/01/23 16:10:49;;;;;;;12.40;9.10;;;;;;;;;;4997332;28;20409;-52
2022/01/23 16:13:15;;;;;;;18.93;9.20;;;;;;;;;;4997898;28;20478;-52
2022/01/23 16:15:43;;;;;;;16.90;10.37;;;;;;;;;;4998782;28;20462;-53
2022/01/23 16:18:09;;;;;;;11.97;6.80;;;;;;;;;;4997448;28;20433;-52
2022/01/23 16:20:36;;;;;;;10.90;7.07;;;;;;;;;;4996422;28;20406;-52
2022/01/23 16:23:02;;;;;;;13.20;7.00;;;;;;;;;;4996780;28;20790;-52
2022/01/23 16:25:28;;;;;;;7.90;4.77;;;;;;;;;;4996882;28;20553;-52
2022/01/23 16:27:54;;;;;;;6.27;5.30;;;;;;;;;;4997044;28;20463;-52
2022/01/23 16:30:21;;;;;;;11.53;7.30;;;;;;;;;;4996231;28;20434;-52
2022/01/23 16:32:47;;;;;;;9.90;7.13;;;;;;;;;;4997078;28;20432;-52
2022/01/23 16:35:15;;;;;;;10.63;6.60;;;;;;;;;;4996388;28;20818;-52
2022/01/23 16:37:41;;;;;;;7.90;6.00;;;;;;;;;;4995643;28;20460;-52
2022/01/23 16:40:08;;;;;;;7.40;6.10;;;;;;;;;;4995591;28;20926;-52
2022/01/23 16:42:33;;;;;;;12.50;7.60;;;;;;;;;;4996310;28;20425;-53
2022/01/23 16:44:59;;;;;;;12.13;8.43;;;;;;;;;;4994793;28;20454;-52
2022/01/23 16:47:25;;;;;;;15.00;8.40;;;;;;;;;;4996344;28;20436;-52
2022/01/23 16:49:51;;;;;;;10.60;7.73;;;;;;;;;;4996280;28;20417;-52
2022/01/23 16:52:17;;;;;;;11.13;7.17;;;;;;;;;;4995699;28;20476;-52
2022/01/23 16:54:45;;;;;;;9.57;7.37;;;;;;;;;;4996196;28;20453;-52
2022/01/23 16:57:11;;;;;;;10.30;7.40;;;;;;;;;;4995867;28;21100;-52
2022/01/23 16:59:38;;;;;;;9.90;6.83;;;;;;;;;;4996176;28;20405;-52
2022/01/23 17:02:04;;;;;;;9.60;7.00;;;;;;;;;;4996226;28;20422;-53
2022/01/23 17:04:33;;;;;;;5.90;4.90;;;;;;;;;;4995445;28;20749;-52
2022/01/23 17:06:59;;;;;;;9.80;6.97;;;;;;;;;;4994472;28;20417;-52
2022/01/23 17:09:29;;;;;;;9.50;5.30;;;;;;;;;;4994114;28;20410;-52
2022/01/23 17:11:55;;;;;;;6.93;5.37;;;;;;;;;;4994022;28;20446;-52
2022/01/23 17:14:21;;;;;;;7.37;4.83;;;;;;;;;;4994545;28;20843;-52
2022/01/23 17:16:47;;;;;;;5.80;4.50;;;;;;;;;;4994644;28;20506;-52
2022/01/23 17:19:13;;;;;;;6.23;5.07;;;;;;;;;;4994265;28;20421;-52
2022/01/23 17:21:39;;;;;;;6.20;4.57;;;;;;;;;;4994171;28;20420;-52
2022/01/23 17:24:05;;;;;;;10.17;5.50;;;;;;;;;;4994568;28;20897;-52
2022/01/23 17:26:33;;;;;;;8.53;6.40;;;;;;;;;;4994908;28;20568;-52
2022/01/23 17:28:59;;;;;;;7.47;5.60;;;;;;;;;;4994303;28;20436;-52
2022/01/23 17:31:25;;;;;;;12.07;8.40;;;;;;;;;;4993751;28;20493;-52
2022/01/23 17:33:51;;;;;;;11.53;7.60;;;;;;;;;;4994110;28;20420;-52
2022/01/23 17:36:17;;;;;;;11.40;7.33;;;;;;;;;;4994781;28;20408;-52
2022/01/23 17:38:43;;;;;;;9.83;7.40;;;;;;;;;;4994135;28;21011;-52
2022/01/23 17:41:12;;;;;;;15.23;7.43;;;;;;;;;;4994099;28;20455;-52
2022/01/23 17:43:38;;;;;;;12.17;7.90;;;;;;;;;;4994069;28;20405;-52
2022/01/23 17:46:06;;;;;;;7.90;6.80;;;;;;;;;;4994433;28;20412;-52
2022/01/23 17:51:07;;;;;;;10.67;7.73;;;;;;;;;;4993708;28;20508;-52
2022/01/23 17:53:34;;;;;;;11.13;6.57;;;;;;;;;;4993553;28;20921;-52
2022/01/23 17:56:00;;;;;;;15.77;10.70;;;;;;;;;;4992152;28;20460;-52
2022/01/23 17:58:26;;;;;;;13.30;9.50;;;;;;;;;;4993889;28;20916;-52
2022/01/23 18:00:53;;;;;;;18.83;10.87;;;;;;;;;;4993488;28;20420;-52
2022/01/23 18:03:20;;;;;;;12.83;8.67;;;;;;;;;;4994400;28;20404;-52
2022/01/23 18:05:47;;;;;;;28.53;13.90;;;;;;;;;;4993898;28;20775;-52
2022/01/23 18:08:14;;;;;;;24.93;12.50;;;;;;;;;;4993779;28;20527;-52